createdAt,value
2019-02-24T00:01:14.783Z,99859.73
2019-02-24T00:03:42.626Z,99851.61
2019-02-24T00:06:10.653Z,99861.48
2019-02-24T00:08:39.697Z,99861.22
2019-02-24T00:11:07.590Z,99869.80
2019-02-24T00:13:35.420Z,99882.08
2019-02-24T00:16:03.360Z,99886.84
2019-02-24T00:18:31.554Z,99879.69
2019-02-24T00:20:59.449Z,99871.84
2019-02-24T00:23:27.502Z,99871.52
2019-02-24T00:25:55.884Z,99882.20
2019-02-24T00:28:23.825Z,99884.31
2019-02-24T00:30:52.031Z,99881.31
2019-02-24T00:33:19.977Z,99866.62
2019-02-24T00:35:48.117Z,99862.97
2019-02-24T00:38:16.203Z,99876.66
2019-02-24T00:40:44.206Z,99874.47
2019-02-24T00:43:13.174Z,99868.19
2019-02-24T00:45:41.759Z,99870.67
2019-02-24T00:48:09.926Z,99876.64
2019-02-24T00:50:38.202Z,99870.93
2019-02-24T00:53:06.229Z,99876.16
2019-02-24T00:55:34.238Z,99874.08
2019-02-24T00:58:02.171Z,99885.77
2019-02-24T01:00:30.046Z,99873.98
2019-02-24T01:02:57.943Z,99873.19
2019-02-24T01:05:25.954Z,99875.22
2019-02-24T01:07:54.086Z,99873.29
2019-02-24T01:10:22.175Z,99875.88
2019-02-24T01:12:50.076Z,99872.97
2019-02-24T01:15:18.090Z,99874.73
2019-02-24T01:17:46.208Z,99881.14
2019-02-24T01:20:14.274Z,99888.63
2019-02-24T01:22:42.326Z,99903.94
2019-02-24T01:25:10.508Z,99893.47
2019-02-24T01:27:38.718Z,99896.47
2019-02-24T01:30:08.669Z,99890.41
2019-02-24T01:32:36.653Z,99896.69
2019-02-24T01:35:04.712Z,99909.30
2019-02-24T01:37:32.728Z,99904.22
2019-02-24T01:40:00.607Z,99903.52
2019-02-24T01:42:28.656Z,99908.76
2019-02-24T01:44:56.380Z,99903.11
2019-02-24T01:47:24.248Z,99895.23
2019-02-24T01:49:52.335Z,99901.00
2019-02-24T01:52:20.731Z,99884.42
2019-02-24T01:54:48.646Z,99895.11
2019-02-24T01:57:16.718Z,99898.73
2019-02-24T01:59:44.808Z,99902.02
2019-02-24T02:02:12.660Z,99904.73
2019-02-24T02:04:40.645Z,99882.44
2019-02-24T02:07:08.568Z,99892.06
2019-02-24T02:09:36.675Z,99903.16
2019-02-24T02:12:06.372Z,99906.29
2019-02-24T02:14:34.389Z,99894.59
2019-02-24T02:17:02.303Z,99902.16
2019-02-24T02:19:30.211Z,99897.13
2019-02-24T02:21:58.053Z,99897.13
2019-02-24T02:24:26.231Z,99894.30
2019-02-24T02:26:54.340Z,99896.41
2019-02-24T02:29:22.362Z,99894.44
2019-02-24T02:31:50.150Z,99900.17
2019-02-24T02:34:18.119Z,99901.34
2019-02-24T02:36:45.912Z,99896.17
2019-02-24T02:39:14.023Z,99900.72
2019-02-24T02:41:41.980Z,99895.01
2019-02-24T02:44:10.219Z,99890.73
2019-02-24T02:46:38.299Z,99888.89
2019-02-24T02:49:06.518Z,99893.72
2019-02-24T02:51:34.619Z,99895.71
2019-02-24T02:54:02.833Z,99893.95
2019-02-24T02:56:30.885Z,99892.18
2019-02-24T02:58:58.939Z,99887.24
2019-02-24T03:01:26.876Z,99886.67
2019-02-24T03:03:54.704Z,99874.45
2019-02-24T03:06:45.199Z,99879.63
2019-02-24T03:09:13.231Z,99870.58
2019-02-24T03:11:41.103Z,99864.59
2019-02-24T03:14:08.961Z,99865.83
2019-02-24T03:16:36.946Z,99864.37
2019-02-24T03:19:04.924Z,99865.76
2019-02-24T03:21:32.810Z,99868.52
2019-02-24T03:24:00.861Z,99867.58
2019-02-24T03:26:28.797Z,99874.00
2019-02-24T03:29:03.808Z,99868.36
2019-02-24T03:31:27.282Z,99867.64
2019-02-24T03:33:55.064Z,99854.50
2019-02-24T03:36:23.065Z,99868.77
2019-02-24T03:38:50.817Z,99859.80
2019-02-24T03:41:18.976Z,99866.59
2019-02-24T03:43:46.976Z,99864.83
2019-02-24T03:46:14.830Z,99867.82
2019-02-24T03:48:42.782Z,99866.02
2019-02-24T03:51:10.762Z,99859.71
2019-02-24T03:53:38.568Z,99846.36
2019-02-24T03:56:06.493Z,99856.41
2019-02-24T03:58:34.391Z,99861.67
2019-02-24T04:01:02.130Z,99859.22
2019-02-24T04:03:30.331Z,99856.23
2019-02-24T04:05:58.381Z,99856.81
2019-02-24T04:08:26.284Z,99848.52
2019-02-24T04:10:54.278Z,99852.25
2019-02-24T04:13:22.181Z,99861.09
2019-02-24T04:15:50.263Z,99853.69
2019-02-24T04:18:18.125Z,99853.00
2019-02-24T04:20:46.103Z,99854.63
2019-02-24T04:23:15.109Z,99840.16
2019-02-24T04:25:42.951Z,99840.16
2019-02-24T04:28:11.068Z,99838.33
2019-02-24T04:30:39.055Z,99837.90
2019-02-24T04:33:06.964Z,99827.71
2019-02-24T04:35:34.818Z,99832.70
2019-02-24T04:38:02.851Z,99843.33
2019-02-24T04:40:30.884Z,99844.24
2019-02-24T04:42:58.949Z,99852.22
2019-02-24T04:45:27.015Z,99849.64
2019-02-24T04:47:54.995Z,99856.17
2019-02-24T04:50:22.952Z,99845.61
2019-02-24T04:52:50.899Z,99845.61
2019-02-24T04:55:18.842Z,99849.41
2019-02-24T04:57:46.752Z,99856.19
2019-02-24T05:00:14.775Z,99861.42
2019-02-24T05:02:42.933Z,99866.97
2019-02-24T05:05:11.011Z,99869.52
2019-02-24T05:07:39.124Z,99866.83
2019-02-24T05:10:07.412Z,99875.86
2019-02-24T05:12:35.541Z,99880.61
2019-02-24T05:15:04.365Z,99871.89
2019-02-24T05:17:33.347Z,99872.23
2019-02-24T05:20:01.311Z,99870.23
2019-02-24T05:22:29.240Z,99865.06
2019-02-24T05:24:57.155Z,99858.13
2019-02-24T05:27:25.124Z,99871.04
2019-02-24T05:29:53.194Z,99866.63
2019-02-24T05:32:21.266Z,99865.06
2019-02-24T05:34:49.268Z,99866.55
2019-02-24T05:37:17.284Z,99861.53
2019-02-24T05:39:46.233Z,99864.87
2019-02-24T05:42:14.253Z,99867.43
2019-02-24T05:44:42.386Z,99859.04
2019-02-24T05:47:10.183Z,99858.88
2019-02-24T05:49:38.210Z,99862.58
2019-02-24T05:52:06.291Z,99844.78
2019-02-24T05:54:34.435Z,99847.13
2019-02-24T05:57:02.483Z,99830.78
2019-02-24T05:59:30.440Z,99820.28
2019-02-24T06:01:58.562Z,99805.60
2019-02-24T06:04:26.602Z,99803.09
2019-02-24T06:06:54.649Z,99806.62
2019-02-24T06:09:22.881Z,99814.50
2019-02-24T06:11:50.923Z,99814.33
2019-02-24T06:14:18.970Z,99824.24
2019-02-24T06:16:46.989Z,99828.82
2019-02-24T06:19:15.034Z,99836.42
2019-02-24T06:21:43.076Z,99825.58
2019-02-24T06:24:11.349Z,99829.80
2019-02-24T06:26:39.464Z,99838.41
2019-02-24T06:29:07.594Z,99827.95
2019-02-24T06:31:35.501Z,99816.67
2019-02-24T06:34:03.467Z,99827.42
2019-02-24T06:36:31.461Z,99818.67
2019-02-24T06:38:59.407Z,99830.09
2019-02-24T06:41:27.487Z,99814.38
2019-02-24T06:43:55.415Z,99808.13
2019-02-24T06:46:24.269Z,99805.67
2019-02-24T06:48:52.183Z,99813.80
2019-02-24T06:51:20.194Z,99809.66
2019-02-24T06:53:48.118Z,99819.04
2019-02-24T06:56:15.922Z,99811.16
2019-02-24T06:58:44.770Z,99804.78
2019-02-24T07:01:13.096Z,99806.39
2019-02-24T07:03:41.407Z,99803.16
2019-02-24T07:06:09.264Z,99789.01
2019-02-24T07:08:37.364Z,99781.73
2019-02-24T07:11:05.371Z,99776.76
2019-02-24T07:13:33.370Z,99778.84
2019-02-24T07:16:01.431Z,99776.27
2019-02-24T07:18:29.517Z,99771.94
2019-02-24T07:20:57.586Z,99773.04
2019-02-24T07:23:25.529Z,99759.96
2019-02-24T07:25:53.355Z,99751.09
2019-02-24T07:28:21.282Z,99755.79
2019-02-24T07:30:49.153Z,99751.08
2019-02-24T07:33:17.108Z,99742.13
2019-02-24T07:35:45.022Z,99736.37
2019-02-24T07:38:12.878Z,99729.39
2019-02-24T07:40:40.907Z,99715.73
2019-02-24T07:43:09.016Z,99702.75
2019-02-24T07:45:37.094Z,99693.50
2019-02-24T07:48:04.978Z,99717.13
2019-02-24T07:50:32.765Z,99740.73
2019-02-24T07:53:00.808Z,99748.77
2019-02-24T07:55:28.788Z,99759.71
2019-02-24T07:57:56.616Z,99767.02
2019-02-24T08:00:31.921Z,99765.82
2019-02-24T08:02:54.511Z,99765.71
2019-02-24T08:05:22.467Z,99759.82
2019-02-24T08:07:50.561Z,99739.97
2019-02-24T08:10:18.366Z,99750.45
2019-02-24T08:12:46.643Z,99740.73
2019-02-24T08:15:14.625Z,99761.61
2019-02-24T08:17:42.655Z,99755.86
2019-02-24T08:20:10.558Z,99760.66
2019-02-24T08:22:38.755Z,99745.86
2019-02-24T08:25:06.676Z,99755.61
2019-02-24T08:27:34.532Z,99768.96
2019-02-24T08:30:02.660Z,99775.13
2019-02-24T08:32:32.373Z,99772.19
2019-02-24T08:35:01.097Z,99780.89
2019-02-24T08:37:30.093Z,99780.25
2019-02-24T08:39:58.055Z,99793.06
2019-02-24T08:42:25.833Z,99787.75
2019-02-24T08:44:53.755Z,99778.20
2019-02-24T08:47:21.652Z,99780.58
2019-02-24T08:49:49.716Z,99774.95
2019-02-24T08:52:17.721Z,99764.09
2019-02-24T08:54:45.645Z,99762.06
2019-02-24T08:57:13.645Z,99774.09
2019-02-24T08:59:41.611Z,99765.25
2019-02-24T09:02:09.552Z,99751.02
2019-02-24T09:04:38.052Z,99758.05
2019-02-24T09:07:05.978Z,99764.53
2019-02-24T09:09:33.871Z,99759.06
2019-02-24T09:12:01.958Z,99736.47
2019-02-24T09:14:29.618Z,99749.56
2019-02-24T09:16:57.462Z,99755.31
2019-02-24T09:19:25.364Z,99772.78
2019-02-24T09:21:53.225Z,99774.11
2019-02-24T09:24:21.086Z,99777.21
2019-02-24T09:26:48.974Z,99771.55
2019-02-24T09:29:18.066Z,99764.61
2019-02-24T09:31:46.304Z,99772.47
2019-02-24T09:34:14.434Z,99761.55
2019-02-24T09:36:42.540Z,99749.34
2019-02-24T09:39:10.616Z,99739.28
2019-02-24T09:41:38.687Z,99746.29
2019-02-24T09:44:06.682Z,99755.42
2019-02-24T09:46:34.884Z,99751.95
2019-02-24T09:49:03.083Z,99751.02
2019-02-24T09:51:31.220Z,99754.09
2019-02-24T09:53:59.351Z,99751.03
2019-02-24T09:56:27.341Z,99752.34
2019-02-24T09:58:55.350Z,99741.83
2019-02-24T10:01:23.413Z,99746.20
2019-02-24T10:03:51.201Z,99752.28
2019-02-24T10:06:19.250Z,99750.97
2019-02-24T10:08:47.178Z,99747.98
2019-02-24T10:11:15.276Z,99753.16
2019-02-24T10:13:43.252Z,99768.76
2019-02-24T10:16:11.331Z,99751.73
2019-02-24T10:18:39.393Z,99761.40
2019-02-24T10:21:07.305Z,99763.16
2019-02-24T10:23:35.175Z,99750.85
2019-02-24T10:26:03.421Z,99764.75
2019-02-24T10:28:31.380Z,99758.27
2019-02-24T10:30:59.261Z,99764.83
2019-02-24T10:33:27.143Z,99778.81
2019-02-24T10:35:55.213Z,99784.39
2019-02-24T10:38:23.406Z,99785.20
2019-02-24T10:40:51.641Z,99783.96
2019-02-24T10:43:19.451Z,99791.38
2019-02-24T10:45:47.645Z,99795.59
2019-02-24T10:48:15.647Z,99793.80
2019-02-24T10:50:43.822Z,99791.68
2019-02-24T10:53:11.695Z,99796.44
2019-02-24T10:55:39.798Z,99789.82
2019-02-24T10:58:07.560Z,99788.55
2019-02-24T11:00:35.732Z,99792.97
2019-02-24T11:03:03.714Z,99795.53
2019-02-24T11:05:31.764Z,99794.66
2019-02-24T11:07:59.644Z,99795.10
2019-02-24T11:10:27.690Z,99778.59
2019-02-24T11:12:55.614Z,99785.95
2019-02-24T11:15:23.525Z,99776.23
2019-02-24T11:17:51.538Z,99767.19
2019-02-24T11:20:19.550Z,99754.05
2019-02-24T11:22:47.229Z,99753.73
2019-02-24T11:25:15.508Z,99755.48
2019-02-24T11:27:43.403Z,99753.29
2019-02-24T11:30:11.359Z,99749.81
2019-02-24T11:32:39.433Z,99750.67
2019-02-24T11:35:07.707Z,99748.50
2019-02-24T11:37:35.608Z,99744.13
2019-02-24T11:40:04.268Z,99733.23
2019-02-24T11:42:32.248Z,99734.95
2019-02-24T11:45:00.330Z,99735.78
2019-02-24T11:47:28.409Z,99722.19
2019-02-24T11:49:56.503Z,99729.70
2019-02-24T11:52:24.581Z,99735.39
2019-02-24T11:54:52.366Z,99732.82
2019-02-24T11:57:20.173Z,99724.59
2019-02-24T11:59:48.109Z,99727.69
2019-02-24T12:02:16.089Z,99727.73
2019-02-24T12:04:44.665Z,99725.54
2019-02-24T12:07:12.471Z,99717.24
2019-02-24T12:09:40.598Z,99719.02
2019-02-24T12:12:08.451Z,99699.84
2019-02-24T12:14:36.431Z,99691.59
2019-02-24T12:17:04.397Z,99687.69
2019-02-24T12:19:32.580Z,99676.34
2019-02-24T12:22:00.577Z,99678.08
2019-02-24T12:24:28.549Z,99675.46
2019-02-24T12:26:56.499Z,99675.03
2019-02-24T12:29:24.771Z,99664.13
2019-02-24T12:31:56.516Z,99658.89
2019-02-24T12:34:22.435Z,99662.38
2019-02-24T12:36:50.302Z,99670.67
2019-02-24T12:39:18.267Z,99670.66
2019-02-24T12:41:46.409Z,99676.33
2019-02-24T12:44:14.247Z,99672.44
2019-02-24T12:46:42.050Z,99665.93
2019-02-24T12:49:10.088Z,99658.09
2019-02-24T12:51:38.006Z,99644.96
2019-02-24T12:54:06.060Z,99637.11
2019-02-24T12:56:34.131Z,99631.88
2019-02-24T12:59:01.942Z,99617.89
2019-02-24T13:01:29.790Z,99618.75
2019-02-24T13:03:57.772Z,99613.94
2019-02-24T13:06:25.793Z,99618.30
2019-02-24T13:08:53.675Z,99613.92
2019-02-24T13:11:21.976Z,99606.48
2019-02-24T13:13:49.844Z,99610.81
2019-02-24T13:16:17.951Z,99609.92
2019-02-24T13:18:45.911Z,99603.34
2019-02-24T13:21:13.806Z,99587.66
2019-02-24T13:23:41.701Z,99587.21
2019-02-24T13:26:09.672Z,99592.81
2019-02-24T13:28:37.788Z,99586.25
2019-02-24T13:31:05.752Z,99587.56
2019-02-24T13:33:33.638Z,99580.56
2019-02-24T13:36:01.799Z,99567.85
2019-02-24T13:38:29.997Z,99566.14
2019-02-24T13:40:57.719Z,99566.50
2019-02-24T13:43:25.736Z,99571.39
2019-02-24T13:45:54.946Z,99568.58
2019-02-24T13:48:22.783Z,99563.19
2019-02-24T13:50:50.734Z,99557.16
2019-02-24T13:53:18.660Z,99559.17
2019-02-24T13:55:46.588Z,99545.50
2019-02-24T13:58:14.926Z,99546.13
2019-02-24T14:00:42.892Z,99537.55
2019-02-24T14:03:11.849Z,99537.79
2019-02-24T14:05:39.779Z,99538.42
2019-02-24T14:08:07.880Z,99536.57
2019-02-24T14:10:35.804Z,99539.69
2019-02-24T14:13:03.865Z,99536.45
2019-02-24T14:15:31.831Z,99549.26
2019-02-24T14:17:59.741Z,99544.88
2019-02-24T14:20:28.999Z,99520.43
2019-02-24T14:22:56.836Z,99524.62
2019-02-24T14:25:24.759Z,99520.51
2019-02-24T14:27:52.926Z,99516.77
2019-02-24T14:30:20.958Z,99520.90
2019-02-24T14:32:49.006Z,99520.41
2019-02-24T14:35:17.200Z,99524.06
2019-02-24T14:37:44.940Z,99519.60
2019-02-24T14:40:13.033Z,99524.56
2019-02-24T14:42:41.153Z,99534.85
2019-02-24T14:45:11.695Z,99541.98
2019-02-24T14:47:39.731Z,99546.88
2019-02-24T14:50:08.218Z,99547.69
2019-02-24T14:52:36.360Z,99548.23
2019-02-24T14:55:04.061Z,99556.22
2019-02-24T14:57:32.206Z,99575.61
2019-02-24T15:00:00.282Z,99565.94
2019-02-24T15:02:28.229Z,99563.41
2019-02-24T15:04:56.140Z,99571.31
2019-02-24T15:07:24.372Z,99559.50
2019-02-24T15:09:52.195Z,99557.39
2019-02-24T15:12:20.231Z,99554.36
2019-02-24T15:14:48.217Z,99564.42
2019-02-24T15:17:16.069Z,99556.98
2019-02-24T15:19:43.973Z,99556.98
2019-02-24T15:22:11.895Z,99552.21
2019-02-24T15:24:39.791Z,99558.30
2019-02-24T15:27:07.882Z,99566.20
2019-02-24T15:29:35.856Z,99547.02
2019-02-24T15:32:03.874Z,99549.20
2019-02-24T15:34:32.179Z,99550.52
2019-02-24T15:37:00.084Z,99545.73
2019-02-24T15:39:28.062Z,99550.52
2019-02-24T15:41:56.063Z,99557.95
2019-02-24T15:44:24.056Z,99571.94
2019-02-24T15:46:52.363Z,99581.09
2019-02-24T15:49:20.257Z,99578.91
2019-02-24T15:51:49.341Z,99589.40
2019-02-24T15:54:17.449Z,99592.04
2019-02-24T15:56:45.567Z,99589.91
2019-02-24T15:59:13.460Z,99590.33
2019-02-24T16:01:41.533Z,99590.34
2019-02-24T16:04:09.337Z,99578.99
2019-02-24T16:06:37.568Z,99573.75
2019-02-24T16:09:05.684Z,99575.47
2019-02-24T16:11:34.115Z,99578.09
2019-02-24T16:14:01.949Z,99584.22
2019-02-24T16:16:30.088Z,99586.84
2019-02-24T16:18:57.990Z,99592.52
2019-02-24T16:21:26.124Z,99590.33
2019-02-24T16:23:54.183Z,99589.00
2019-02-24T16:26:22.563Z,99591.65
2019-02-24T16:28:50.820Z,99593.83
2019-02-24T16:31:18.944Z,99598.20
2019-02-24T16:33:46.912Z,99590.35
2019-02-24T16:36:14.924Z,99585.09
2019-02-24T16:38:43.175Z,99597.30
2019-02-24T16:41:11.161Z,99597.30
2019-02-24T16:43:39.292Z,99596.02
2019-02-24T16:46:07.363Z,99599.96
2019-02-24T16:48:35.385Z,99604.32
2019-02-24T16:51:04.549Z,99610.88
2019-02-24T16:53:32.640Z,99609.98
2019-02-24T16:56:00.899Z,99612.17
2019-02-24T16:58:28.942Z,99597.78
2019-02-24T17:00:56.988Z,99599.52
2019-02-24T17:03:26.076Z,99596.50
2019-02-24T17:05:54.087Z,99597.81
2019-02-24T17:08:23.112Z,99596.91
2019-02-24T17:10:51.146Z,99597.80
2019-02-24T17:13:19.176Z,99599.54
2019-02-24T17:15:47.126Z,99608.28
2019-02-24T17:18:15.126Z,99617.47
2019-02-24T17:20:43.169Z,99618.34
2019-02-24T17:23:11.549Z,99620.53
2019-02-24T17:25:39.664Z,99628.39
2019-02-24T17:28:07.567Z,99639.72
2019-02-24T17:30:36.694Z,99645.39
2019-02-24T17:33:04.879Z,99650.65
2019-02-24T17:35:33.241Z,99654.14
2019-02-24T17:38:01.282Z,99647.59
2019-02-24T17:40:29.221Z,99640.18
2019-02-24T17:42:57.243Z,99651.97
2019-02-24T17:45:25.443Z,99654.59
2019-02-24T17:47:53.659Z,99659.81
2019-02-24T17:50:21.616Z,99656.77
2019-02-24T17:52:49.606Z,99671.63
2019-02-24T17:55:17.645Z,99661.56
2019-02-24T17:57:45.760Z,99657.20
2019-02-24T18:00:22.522Z,99657.20
2019-02-24T18:02:50.490Z,99651.53
2019-02-24T18:05:18.426Z,99649.77
2019-02-24T18:07:46.607Z,99648.47
2019-02-24T18:10:14.577Z,99643.64
2019-02-24T18:12:42.505Z,99648.45
2019-02-24T18:15:10.815Z,99651.06
2019-02-24T18:17:38.838Z,99655.43
2019-02-24T18:20:07.890Z,99657.62
2019-02-24T18:22:35.888Z,99653.70
2019-02-24T18:25:04.023Z,99658.95
2019-02-24T18:27:32.080Z,99657.20
2019-02-24T18:30:00.295Z,99650.22
2019-02-24T18:32:28.337Z,99655.91
2019-02-24T18:34:56.310Z,99657.63
2019-02-24T18:37:25.555Z,99649.78
2019-02-24T18:39:53.659Z,99650.22
2019-02-24T18:42:21.598Z,99641.47
2019-02-24T18:44:50.204Z,99637.53
2019-02-24T18:47:18.310Z,99636.23
2019-02-24T18:49:46.245Z,99644.53
2019-02-24T18:52:14.375Z,99625.74
2019-02-24T18:54:42.598Z,99625.77
2019-02-24T18:57:10.730Z,99633.17
2019-02-24T18:59:38.833Z,99631.89
2019-02-24T19:02:06.979Z,99633.61
2019-02-24T19:04:34.942Z,99636.68
2019-02-24T19:07:03.056Z,99632.30
2019-02-24T19:09:31.811Z,99626.63
2019-02-24T19:12:00.099Z,99630.11
2019-02-24T19:14:29.670Z,99626.19
2019-02-24T19:16:57.746Z,99630.58
2019-02-24T19:19:25.953Z,99625.33
2019-02-24T19:21:53.904Z,99630.55
2019-02-24T19:24:21.941Z,99626.63
2019-02-24T19:26:50.049Z,99621.84
2019-02-24T19:29:17.948Z,99623.58
2019-02-24T19:31:45.884Z,99631.88
2019-02-24T19:34:13.749Z,99630.98
2019-02-24T19:36:41.780Z,99625.34
2019-02-24T19:39:13.004Z,99624.01
2019-02-24T19:41:41.253Z,99614.41
2019-02-24T19:44:09.345Z,99615.30
2019-02-24T19:46:38.011Z,99621.40
2019-02-24T19:49:05.822Z,99616.60
2019-02-24T19:51:34.803Z,99615.29
2019-02-24T19:54:02.766Z,99610.92
2019-02-24T19:56:31.091Z,99609.17
2019-02-24T19:58:59.998Z,99616.17
2019-02-24T20:01:28.097Z,99615.71
2019-02-24T20:03:56.194Z,99606.98
2019-02-24T20:06:24.118Z,99610.03
2019-02-24T20:08:52.116Z,99617.02
2019-02-24T20:11:20.174Z,99610.04
2019-02-24T20:13:48.142Z,99617.03
2019-02-24T20:16:16.616Z,99609.16
2019-02-24T20:18:44.534Z,99614.83
2019-02-24T20:21:12.401Z,99607.44
2019-02-24T20:23:40.310Z,99599.55
2019-02-24T20:26:08.584Z,99605.69
2019-02-24T20:28:36.829Z,99604.34
2019-02-24T20:31:05.052Z,99609.58
2019-02-24T20:33:32.926Z,99610.48
2019-02-24T20:36:00.966Z,99603.05
2019-02-24T20:38:28.892Z,99600.88
2019-02-24T20:40:57.771Z,99594.75
2019-02-24T20:43:25.724Z,99591.71
2019-02-24T20:45:53.843Z,99585.14
2019-02-24T20:48:21.806Z,99583.86
2019-02-24T20:50:51.254Z,99589.53
2019-02-24T20:53:19.579Z,99590.40
2019-02-24T20:55:47.677Z,99590.40
2019-02-24T20:58:15.575Z,99584.73
2019-02-24T21:00:43.756Z,99590.84
2019-02-24T21:03:11.663Z,99593.45
2019-02-24T21:05:39.780Z,99586.47
2019-02-24T21:08:08.144Z,99579.93
2019-02-24T21:10:36.303Z,99574.69
2019-02-24T21:13:04.242Z,99578.62
2019-02-24T21:15:32.337Z,99583.41
2019-02-24T21:18:01.424Z,99575.55
2019-02-24T21:20:29.693Z,99567.27
2019-02-24T21:22:57.807Z,99558.54
2019-02-24T21:25:25.715Z,99562.03
2019-02-24T21:27:53.579Z,99567.68
2019-02-24T21:30:21.642Z,99572.48
2019-02-24T21:32:49.658Z,99566.80
2019-02-24T21:35:17.759Z,99570.33
2019-02-24T21:37:45.790Z,99566.39
2019-02-24T21:40:13.865Z,99568.55
2019-02-24T21:42:41.772Z,99565.52
2019-02-24T21:45:11.919Z,99571.20
2019-02-24T21:47:39.866Z,99568.56
2019-02-24T21:50:08.778Z,99570.73
2019-02-24T21:52:38.354Z,99567.28
2019-02-24T21:55:06.570Z,99570.77
2019-02-24T21:57:34.557Z,99569.43
2019-02-24T22:00:02.514Z,99571.61
2019-02-24T22:02:31.154Z,99573.80
2019-02-24T22:04:59.277Z,99569.88
2019-02-24T22:07:27.229Z,99575.97
2019-02-24T22:09:55.412Z,99569.86
2019-02-24T22:12:23.378Z,99577.29
2019-02-24T22:14:51.342Z,99579.91
2019-02-24T22:17:19.454Z,99579.91
2019-02-24T22:19:47.489Z,99576.44
2019-02-24T22:22:15.493Z,99564.20
2019-02-24T22:24:43.488Z,99561.59
2019-02-24T22:27:12.542Z,99562.02
2019-02-24T22:29:40.590Z,99549.36
2019-02-24T22:32:08.591Z,99561.16
2019-02-24T22:34:36.312Z,99559.41
2019-02-24T22:37:04.429Z,99548.94
2019-02-24T22:39:32.364Z,99561.16
2019-02-24T22:42:00.439Z,99545.45
2019-02-24T22:44:31.504Z,99547.19
2019-02-24T22:46:59.652Z,99548.94
2019-02-24T22:49:27.647Z,99546.31
2019-02-24T22:51:55.939Z,99552.44
2019-02-24T22:54:23.964Z,99552.41
2019-02-24T22:56:51.890Z,99547.18
2019-02-24T22:59:19.940Z,99550.23
2019-02-24T23:01:48.729Z,99543.67
2019-02-24T23:04:16.534Z,99540.20
2019-02-24T23:06:44.526Z,99530.59
2019-02-24T23:09:15.940Z,99534.08
2019-02-24T23:11:43.922Z,99539.76
2019-02-24T23:14:11.889Z,99535.39
2019-02-24T23:16:39.700Z,99507.90
2019-02-24T23:19:07.727Z,99527.97
2019-02-24T23:21:35.625Z,99526.67
2019-02-24T23:24:03.679Z,99525.36
2019-02-24T23:26:31.829Z,99524.06
2019-02-24T23:28:59.813Z,99526.67
2019-02-24T23:31:27.626Z,99528.86
2019-02-24T23:33:55.774Z,99531.92
2019-02-24T23:36:23.927Z,99530.61
2019-02-24T23:38:51.889Z,99524.47
2019-02-24T23:41:20.173Z,99519.25
2019-02-24T23:43:48.074Z,99511.39
2019-02-24T23:46:16.144Z,99515.31
2019-02-24T23:48:43.971Z,99503.52
2019-02-24T23:51:13.268Z,99505.70
2019-02-24T23:53:41.102Z,99511.39
2019-02-24T23:56:09.016Z,99507.89
2019-02-24T23:58:37.114Z,99500.89
